createdAt,value
2018-10-17T00:01:29.349Z,15.20
2018-10-17T00:03:57.621Z,15.20
2018-10-17T00:06:26.815Z,15.20
2018-10-17T00:08:55.146Z,15.10
2018-10-17T00:11:23.548Z,15.00
2018-10-17T00:13:51.940Z,14.90
2018-10-17T00:16:20.170Z,14.80
2018-10-17T00:18:48.414Z,14.70
2018-10-17T00:21:16.682Z,14.70
2018-10-17T00:23:44.966Z,14.60
2018-10-17T00:26:13.237Z,14.40
2018-10-17T00:28:41.704Z,14.50
2018-10-17T00:31:10.017Z,14.50
2018-10-17T00:33:38.213Z,14.40
2018-10-17T00:36:06.503Z,14.50
2018-10-17T00:38:34.807Z,14.40
2018-10-17T00:41:03.146Z,14.40
2018-10-17T00:43:31.333Z,14.30
2018-10-17T00:45:59.582Z,14.30
2018-10-17T00:48:27.840Z,14.20
2018-10-17T00:50:56.106Z,14.30
2018-10-17T00:53:24.368Z,14.40
2018-10-17T00:55:52.636Z,14.40
2018-10-17T00:58:20.918Z,14.50
2018-10-17T01:00:49.159Z,14.50
2018-10-17T01:03:17.410Z,14.50
2018-10-17T01:05:45.674Z,14.50
2018-10-17T01:08:13.950Z,14.50
2018-10-17T01:10:42.223Z,14.40
2018-10-17T01:13:10.542Z,14.30
2018-10-17T01:15:38.783Z,14.20
2018-10-17T01:18:07.074Z,14.20
2018-10-17T01:20:35.352Z,14.20
2018-10-17T01:23:03.693Z,14.10
2018-10-17T01:25:31.894Z,14.10
2018-10-17T01:28:00.168Z,14.20
2018-10-17T01:30:28.439Z,14.10
2018-10-17T01:32:56.731Z,14.00
2018-10-17T01:35:25.082Z,14.00
2018-10-17T01:37:53.339Z,14.00
2018-10-17T01:40:22.994Z,14.00
2018-10-17T01:42:51.257Z,14.00
2018-10-17T01:45:19.504Z,14.10
2018-10-17T01:47:48.108Z,14.10
2018-10-17T01:50:16.405Z,14.00
2018-10-17T01:52:44.669Z,14.10
2018-10-17T01:55:13.000Z,14.10
2018-10-17T01:57:41.201Z,14.10
2018-10-17T02:00:09.487Z,14.10
2018-10-17T02:02:37.759Z,14.10
2018-10-17T02:05:06.084Z,14.10
2018-10-17T02:07:34.294Z,14.10
2018-10-17T02:10:02.598Z,14.00
2018-10-17T02:12:30.877Z,14.00
2018-10-17T02:14:59.137Z,14.00
2018-10-17T02:17:27.374Z,14.20
2018-10-17T02:19:55.709Z,14.40
2018-10-17T02:22:23.985Z,14.40
2018-10-17T02:24:52.291Z,14.20
2018-10-17T02:27:20.540Z,14.00
2018-10-17T02:29:48.872Z,13.90
2018-10-17T02:32:17.094Z,13.90
2018-10-17T02:34:50.634Z,13.80
2018-10-17T02:37:18.903Z,13.80
2018-10-17T02:39:47.202Z,13.70
2018-10-17T02:42:15.413Z,13.70
2018-10-17T02:44:43.699Z,13.70
2018-10-17T02:47:12.035Z,13.70
2018-10-17T02:49:40.186Z,13.70
2018-10-17T02:52:08.423Z,13.70
2018-10-17T02:54:36.693Z,13.70
2018-10-17T02:57:05.080Z,13.70
2018-10-17T02:59:33.324Z,13.60
2018-10-17T03:02:01.552Z,13.70
2018-10-17T03:04:29.944Z,13.60
2018-10-17T03:06:58.263Z,13.60
2018-10-17T03:09:26.463Z,13.40
2018-10-17T03:11:54.752Z,13.50
2018-10-17T03:14:23.035Z,13.40
2018-10-17T03:16:51.313Z,13.50
2018-10-17T03:19:19.644Z,13.40
2018-10-17T03:21:47.811Z,13.40
2018-10-17T03:24:16.044Z,13.30
2018-10-17T03:26:44.283Z,13.40
2018-10-17T03:29:12.670Z,13.20
2018-10-17T03:31:40.772Z,13.10
2018-10-17T03:34:09.064Z,13.00
2018-10-17T03:36:37.383Z,13.20
2018-10-17T03:39:08.378Z,13.10
2018-10-17T03:41:36.634Z,13.00
2018-10-17T03:44:04.943Z,13.00
2018-10-17T03:46:33.160Z,12.90
2018-10-17T03:49:01.421Z,12.90
2018-10-17T03:51:29.663Z,12.90
2018-10-17T03:53:58.065Z,13.00
2018-10-17T03:56:26.278Z,13.00
2018-10-17T03:58:54.559Z,13.10
2018-10-17T04:01:22.794Z,13.00
2018-10-17T04:03:51.032Z,13.10
2018-10-17T04:06:19.446Z,13.20
2018-10-17T04:08:47.671Z,13.20
2018-10-17T04:11:16.022Z,13.20
2018-10-17T04:13:44.161Z,13.10
2018-10-17T04:16:12.433Z,12.90
2018-10-17T04:18:40.747Z,13.10
2018-10-17T04:21:09.006Z,12.90
2018-10-17T04:23:37.297Z,13.00
2018-10-17T04:26:05.553Z,13.00
2018-10-17T04:28:33.803Z,12.90
2018-10-17T04:31:02.115Z,12.90
2018-10-17T04:33:30.300Z,12.90
2018-10-17T04:35:58.625Z,12.80
2018-10-17T04:38:26.848Z,12.90
2018-10-17T04:40:55.125Z,12.80
2018-10-17T04:43:23.335Z,12.80
2018-10-17T04:45:51.600Z,12.80
2018-10-17T04:48:19.894Z,12.80
2018-10-17T04:50:48.141Z,12.80
2018-10-17T04:53:16.460Z,12.80
2018-10-17T04:55:44.648Z,12.90
2018-10-17T04:58:12.947Z,12.80
2018-10-17T05:00:41.188Z,12.80
2018-10-17T05:03:09.413Z,12.70
2018-10-17T05:05:37.687Z,12.60
2018-10-17T05:08:05.999Z,12.60
2018-10-17T05:10:34.277Z,12.40
2018-10-17T05:13:02.592Z,12.40
2018-10-17T05:15:30.810Z,12.40
2018-10-17T05:17:59.368Z,12.40
2018-10-17T05:20:27.776Z,12.40
2018-10-17T05:22:56.278Z,12.50
2018-10-17T05:25:24.527Z,12.50
2018-10-17T05:27:52.781Z,12.40
2018-10-17T05:30:21.041Z,12.50
2018-10-17T05:32:49.279Z,12.50
2018-10-17T05:35:17.573Z,12.50
2018-10-17T05:37:45.950Z,12.50
2018-10-17T05:40:14.096Z,12.50
2018-10-17T05:42:42.364Z,12.50
2018-10-17T05:45:10.609Z,12.60
2018-10-17T05:47:39.380Z,12.60
2018-10-17T05:50:07.739Z,12.70
2018-10-17T05:52:36.218Z,12.60
2018-10-17T05:55:04.580Z,12.50
2018-10-17T05:57:32.809Z,12.50
2018-10-17T06:00:01.063Z,12.50
2018-10-17T06:02:32.645Z,12.50
2018-10-17T06:05:00.883Z,12.50
2018-10-17T06:07:29.194Z,12.60
2018-10-17T06:09:57.456Z,12.60
2018-10-17T06:12:25.780Z,12.60
2018-10-17T06:14:54.051Z,12.80
2018-10-17T06:17:22.463Z,12.80
2018-10-17T06:19:52.748Z,12.90
2018-10-17T06:22:21.006Z,12.80
2018-10-17T06:24:49.277Z,12.80
2018-10-17T06:27:17.561Z,12.90
2018-10-17T06:29:45.791Z,12.90
2018-10-17T06:32:14.087Z,12.80
2018-10-17T06:34:42.431Z,12.90
2018-10-17T06:37:10.773Z,12.90
2018-10-17T06:39:39.082Z,12.80
2018-10-17T06:42:07.331Z,12.90
2018-10-17T06:44:35.773Z,13.20
2018-10-17T06:47:04.623Z,13.30
2018-10-17T06:49:33.027Z,13.40
2018-10-17T06:52:01.379Z,13.20
2018-10-17T06:54:30.415Z,13.10
2018-10-17T06:56:58.686Z,13.30
2018-10-17T06:59:26.959Z,13.60
2018-10-17T07:01:55.460Z,13.50
2018-10-17T07:04:23.605Z,13.40
2018-10-17T07:06:51.981Z,13.40
2018-10-17T07:09:20.260Z,13.50
2018-10-17T07:11:48.511Z,13.30
2018-10-17T07:14:17.310Z,13.60
2018-10-17T07:16:45.886Z,13.70
2018-10-17T07:19:14.388Z,13.80
2018-10-17T07:24:28.039Z,14.00
2018-10-17T07:26:56.751Z,14.10
2018-10-17T07:29:25.468Z,14.20
2018-10-17T07:34:44.404Z,14.30
2018-10-17T07:37:12.648Z,14.30
2018-10-17T07:39:41.056Z,14.30
2018-10-17T07:42:09.333Z,14.40
2018-10-17T07:44:37.607Z,14.50
2018-10-17T07:47:06.128Z,14.70
2018-10-17T07:49:35.044Z,14.90
2018-10-17T07:52:04.139Z,14.90
2018-10-17T07:54:32.461Z,15.00
2018-10-17T07:57:01.465Z,15.10
2018-10-17T07:59:30.520Z,15.10
2018-10-17T08:01:59.483Z,15.20
2018-10-17T08:04:28.053Z,15.20
2018-10-17T08:06:56.552Z,15.40
2018-10-17T08:09:25.210Z,15.40
2018-10-17T08:11:53.773Z,15.50
2018-10-17T08:14:22.184Z,15.70
2018-10-17T08:16:51.323Z,15.60
2018-10-17T08:19:20.019Z,15.70
2018-10-17T08:21:48.291Z,15.80
2018-10-17T08:24:16.762Z,15.80
2018-10-17T08:26:52.221Z,15.90
2018-10-17T08:29:20.702Z,16.00
2018-10-17T08:31:49.727Z,16.10
2018-10-17T08:34:18.870Z,16.30
2018-10-17T08:36:47.639Z,16.20
2018-10-17T08:39:16.135Z,16.30
2018-10-17T08:41:44.702Z,16.40
2018-10-17T08:44:13.605Z,16.40
2018-10-17T08:46:43.177Z,16.40
2018-10-17T08:49:14.746Z,16.50
2018-10-17T08:51:43.717Z,16.70
2018-10-17T08:54:14.161Z,16.90
2018-10-17T08:56:42.960Z,17.00
2018-10-17T08:59:14.174Z,16.90
2018-10-17T09:01:43.065Z,17.10
2018-10-17T09:04:11.492Z,17.20
2018-10-17T09:06:40.533Z,17.50
2018-10-17T09:09:10.588Z,17.50
2018-10-17T09:11:39.424Z,17.60
2018-10-17T09:14:08.512Z,17.70
2018-10-17T09:16:36.880Z,17.70
2018-10-17T09:19:05.843Z,17.90
2018-10-17T09:21:34.644Z,18.10
2018-10-17T09:24:02.551Z,18.00
2018-10-17T09:26:31.824Z,18.10
2018-10-17T09:29:00.238Z,18.30
2018-10-17T09:31:28.606Z,18.30
2018-10-17T09:33:56.953Z,18.30
2018-10-17T09:36:25.369Z,18.40
2018-10-17T09:38:54.211Z,18.50
2018-10-17T09:41:22.512Z,18.50
2018-10-17T09:43:50.938Z,18.60
2018-10-17T09:46:19.253Z,18.80
2018-10-17T09:48:48.117Z,18.90
2018-10-17T09:51:16.924Z,19.00
2018-10-17T09:53:45.195Z,19.20
2018-10-17T09:59:04.863Z,19.00
2018-10-17T10:01:38.353Z,19.20
2018-10-17T10:04:07.380Z,19.30
2018-10-17T10:06:35.704Z,19.40
2018-10-17T10:09:05.100Z,19.60
2018-10-17T10:11:33.329Z,19.90
2018-10-17T10:14:01.607Z,19.70
2018-10-17T10:16:29.956Z,19.80
2018-10-17T10:18:58.227Z,20.10
2018-10-17T10:21:26.594Z,20.10
2018-10-17T10:23:54.856Z,20.20
2018-10-17T10:26:23.131Z,20.20
2018-10-17T10:28:51.435Z,20.40
2018-10-17T10:31:19.739Z,20.40
2018-10-17T10:33:47.988Z,20.40
2018-10-17T10:36:16.344Z,20.80
2018-10-17T10:38:44.511Z,21.00
2018-10-17T10:41:12.855Z,21.50
2018-10-17T10:43:41.128Z,21.80
2018-10-17T10:46:09.455Z,21.50
2018-10-17T10:48:37.796Z,21.20
2018-10-17T10:51:06.831Z,20.90
2018-10-17T10:53:35.266Z,21.40
2018-10-17T10:56:03.990Z,21.40
2018-10-17T10:58:32.466Z,21.30
2018-10-17T11:01:01.537Z,21.20
2018-10-17T11:03:29.775Z,21.30
2018-10-17T11:05:58.387Z,21.50
2018-10-17T11:08:27.166Z,21.80
2018-10-17T11:10:55.623Z,21.90
2018-10-17T11:13:23.871Z,22.40
2018-10-17T11:15:52.160Z,22.50
2018-10-17T11:18:20.398Z,22.40
2018-10-17T11:20:48.722Z,22.70
2018-10-17T11:23:17.176Z,22.70
2018-10-17T11:25:45.375Z,23.00
2018-10-17T11:28:13.774Z,22.70
2018-10-17T11:30:42.051Z,22.60
2018-10-17T11:33:10.408Z,22.30
2018-10-17T11:35:38.696Z,22.10
2018-10-17T11:38:06.981Z,22.30
2018-10-17T11:40:35.385Z,22.60
2018-10-17T11:45:50.100Z,22.70
2018-10-17T11:48:24.858Z,22.90
2018-10-17T11:50:53.647Z,23.10
2018-10-17T11:53:22.508Z,23.30
2018-10-17T11:55:51.349Z,23.80
2018-10-17T12:01:00.388Z,23.10
2018-10-17T12:03:28.752Z,23.20
2018-10-17T12:05:57.173Z,23.60
2018-10-17T12:08:25.298Z,23.30
2018-10-17T12:10:53.557Z,23.50
2018-10-17T12:13:21.842Z,23.70
2018-10-17T12:15:50.141Z,23.90
2018-10-17T12:18:18.476Z,23.90
2018-10-17T12:20:46.762Z,23.80
2018-10-17T12:23:15.021Z,23.80
2018-10-17T12:25:43.308Z,24.00
2018-10-17T12:28:11.824Z,24.40
2018-10-17T12:30:39.893Z,24.20
2018-10-17T12:33:08.149Z,24.20
2018-10-17T12:35:36.523Z,24.10
2018-10-17T12:38:04.878Z,24.30
2018-10-17T12:40:33.329Z,24.30
2018-10-17T12:43:01.451Z,24.20
2018-10-17T12:45:29.964Z,24.80
2018-10-17T12:47:58.359Z,25.10
2018-10-17T12:50:26.887Z,24.80
2018-10-17T12:52:55.259Z,25.10
2018-10-17T12:55:23.425Z,25.00
2018-10-17T12:57:51.744Z,24.90
2018-10-17T13:00:23.133Z,24.90
2018-10-17T13:02:51.425Z,24.90
2018-10-17T13:05:19.883Z,24.80
2018-10-17T13:07:48.188Z,25.10
2018-10-17T13:10:16.764Z,24.80
2018-10-17T13:12:45.146Z,25.20
2018-10-17T13:15:14.232Z,25.30
2018-10-17T13:17:43.801Z,25.20
2018-10-17T13:20:12.123Z,25.00
2018-10-17T13:22:40.605Z,25.10
2018-10-17T13:25:09.106Z,25.30
2018-10-17T13:27:37.363Z,25.50
2018-10-17T13:30:06.433Z,25.00
2018-10-17T13:32:34.748Z,25.20
2018-10-17T13:35:03.809Z,25.00
2018-10-17T13:37:32.235Z,24.90
2018-10-17T13:40:00.661Z,24.50
2018-10-17T13:42:29.032Z,24.60
2018-10-17T13:44:57.383Z,24.90
2018-10-17T13:47:25.845Z,25.00
2018-10-17T13:49:55.257Z,25.20
2018-10-17T13:52:33.851Z,25.40
2018-10-17T13:55:05.033Z,25.40
2018-10-17T13:57:33.387Z,25.20
2018-10-17T14:00:01.852Z,25.20
2018-10-17T14:02:30.375Z,25.40
2018-10-17T14:04:58.701Z,25.10
2018-10-17T14:07:27.263Z,25.30
2018-10-17T14:09:55.560Z,25.40
2018-10-17T14:12:23.926Z,25.40
2018-10-17T14:14:52.655Z,25.40
2018-10-17T14:17:21.022Z,25.10
2018-10-17T14:19:49.381Z,24.70
2018-10-17T14:22:17.693Z,24.80
2018-10-17T14:24:46.230Z,24.90
2018-10-17T14:27:14.707Z,25.00
2018-10-17T14:29:43.064Z,25.20
2018-10-17T14:32:11.354Z,25.30
2018-10-17T14:34:39.660Z,25.20
2018-10-17T14:37:08.303Z,25.10
2018-10-17T14:39:36.584Z,25.00
2018-10-17T14:42:05.838Z,25.00
2018-10-17T14:44:34.132Z,25.10
2018-10-17T14:47:03.750Z,25.00
2018-10-17T14:49:32.270Z,25.10
2018-10-17T14:52:00.701Z,25.10
2018-10-17T14:54:29.531Z,24.80
2018-10-17T14:56:57.889Z,25.10
2018-10-17T14:59:26.465Z,25.10
2018-10-17T15:01:55.971Z,25.20
2018-10-17T15:04:24.425Z,24.90
2018-10-17T15:06:52.768Z,24.40
2018-10-17T15:09:21.524Z,24.40
2018-10-17T15:11:50.157Z,24.50
2018-10-17T15:14:18.245Z,24.30
2018-10-17T15:16:46.608Z,24.30
2018-10-17T15:19:14.814Z,24.10
2018-10-17T15:21:43.058Z,24.00
2018-10-17T15:24:11.460Z,24.00
2018-10-17T15:26:39.784Z,24.20
2018-10-17T15:29:08.058Z,24.30
2018-10-17T15:31:36.418Z,24.20
2018-10-17T15:34:04.643Z,24.10
2018-10-17T15:36:32.937Z,23.90
2018-10-17T15:39:01.294Z,23.90
2018-10-17T15:41:29.514Z,23.80
2018-10-17T15:43:57.846Z,23.70
2018-10-17T15:46:26.368Z,23.80
2018-10-17T15:48:54.656Z,23.80
2018-10-17T15:51:23.021Z,23.80
2018-10-17T15:53:51.282Z,23.70
2018-10-17T15:56:19.780Z,23.80
2018-10-17T15:58:48.134Z,23.80
2018-10-17T16:01:16.490Z,23.70
2018-10-17T16:03:44.904Z,23.60
2018-10-17T16:06:13.299Z,23.50
2018-10-17T16:08:41.500Z,23.50
2018-10-17T16:11:10.211Z,23.30
2018-10-17T16:13:38.523Z,23.30
2018-10-17T16:16:06.793Z,23.10
2018-10-17T16:18:35.089Z,22.80
2018-10-17T16:21:04.079Z,22.60
2018-10-17T16:23:32.425Z,22.50
2018-10-17T16:26:01.503Z,22.40
2018-10-17T16:28:30.473Z,22.60
2018-10-17T16:30:58.846Z,22.40
2018-10-17T16:33:27.187Z,22.20
2018-10-17T16:35:55.507Z,22.00
2018-10-17T16:38:23.931Z,21.80
2018-10-17T16:40:52.241Z,21.70
2018-10-17T16:43:20.485Z,21.60
2018-10-17T16:45:48.783Z,21.60
2018-10-17T16:48:17.098Z,21.50
2018-10-17T16:50:45.563Z,21.50
2018-10-17T16:53:13.639Z,21.60
2018-10-17T16:55:41.942Z,21.40
2018-10-17T16:58:10.324Z,21.10
2018-10-17T17:00:38.543Z,20.80
2018-10-17T17:03:06.850Z,20.70
2018-10-17T17:05:35.091Z,20.60
2018-10-17T17:08:03.384Z,20.50
2018-10-17T17:10:31.680Z,20.40
2018-10-17T17:12:59.953Z,20.30
2018-10-17T17:15:28.202Z,20.20
2018-10-17T17:17:56.523Z,20.20
2018-10-17T17:20:24.767Z,20.10
2018-10-17T17:22:53.074Z,20.00
2018-10-17T17:25:21.256Z,19.80
2018-10-17T17:27:49.512Z,19.70
2018-10-17T17:30:18.932Z,19.70
2018-10-17T17:32:48.262Z,19.50
2018-10-17T17:35:16.607Z,19.20
2018-10-17T17:37:44.899Z,19.20
2018-10-17T17:40:14.164Z,19.00
2018-10-17T17:42:42.449Z,18.90
2018-10-17T17:45:10.975Z,18.90
2018-10-17T17:47:39.669Z,18.60
2018-10-17T17:50:09.097Z,18.70
2018-10-17T17:52:37.404Z,18.40
2018-10-17T17:55:07.768Z,18.70
2018-10-17T17:57:36.241Z,19.10
2018-10-17T18:00:05.387Z,19.20
2018-10-17T18:02:33.745Z,18.90
2018-10-17T18:05:02.016Z,18.60
2018-10-17T18:07:30.316Z,18.30
2018-10-17T18:09:58.610Z,18.20
2018-10-17T18:12:26.838Z,18.20
2018-10-17T18:14:55.084Z,18.00
2018-10-17T18:17:23.363Z,17.90
2018-10-17T18:19:51.613Z,18.00
2018-10-17T18:22:19.886Z,17.90
2018-10-17T18:24:48.132Z,17.80
2018-10-17T18:27:16.356Z,17.90
2018-10-17T18:29:44.607Z,17.80
2018-10-17T18:32:12.874Z,17.50
2018-10-17T18:34:41.096Z,17.50
2018-10-17T18:37:09.363Z,17.60
2018-10-17T18:39:37.622Z,18.00
2018-10-17T18:42:05.941Z,17.80
2018-10-17T18:44:34.191Z,17.40
2018-10-17T18:47:02.433Z,17.50
2018-10-17T18:49:30.659Z,17.40
2018-10-17T18:51:58.900Z,17.50
2018-10-17T18:54:27.157Z,17.30
2018-10-17T18:56:55.494Z,17.20
2018-10-17T18:59:23.697Z,17.10
2018-10-17T19:01:51.913Z,17.60
2018-10-17T19:04:20.207Z,17.60
2018-10-17T19:06:48.548Z,17.50
2018-10-17T19:09:18.392Z,17.10
2018-10-17T19:11:46.663Z,17.00
2018-10-17T19:14:15.788Z,17.20
2018-10-17T19:16:44.124Z,17.60
2018-10-17T19:19:12.402Z,17.70
2018-10-17T19:21:40.779Z,17.80
2018-10-17T19:24:09.096Z,17.70
2018-10-17T19:26:37.376Z,17.40
2018-10-17T19:29:05.639Z,17.20
2018-10-17T19:31:34.159Z,17.10
2018-10-17T19:34:02.556Z,17.50
2018-10-17T19:36:30.768Z,17.70
2018-10-17T19:38:59.046Z,17.60
2018-10-17T19:41:27.307Z,17.40
2018-10-17T19:43:55.831Z,17.30
2018-10-17T19:46:24.180Z,17.40
2018-10-17T19:48:52.634Z,17.20
2018-10-17T19:51:20.914Z,16.90
2018-10-17T19:53:49.204Z,17.00
2018-10-17T19:56:17.444Z,16.80
2018-10-17T19:58:45.686Z,16.60
2018-10-17T20:01:14.031Z,16.70
2018-10-17T20:03:42.287Z,16.60
2018-10-17T20:06:10.520Z,16.70
2018-10-17T20:08:38.751Z,16.70
2018-10-17T20:11:07.018Z,16.70
2018-10-17T20:13:35.280Z,16.70
2018-10-17T20:16:03.547Z,16.60
2018-10-17T20:18:31.810Z,16.60
2018-10-17T20:21:00.284Z,16.40
2018-10-17T20:23:28.502Z,16.20
2018-10-17T20:25:57.819Z,16.10
2018-10-17T20:28:26.257Z,16.00
2018-10-17T20:30:56.023Z,16.20
2018-10-17T20:33:24.323Z,16.20
2018-10-17T20:35:52.667Z,16.20
2018-10-17T20:38:20.977Z,16.10
2018-10-17T20:40:49.201Z,16.40
2018-10-17T20:43:17.578Z,16.40
2018-10-17T20:45:45.927Z,16.40
2018-10-17T20:48:14.186Z,16.80
2018-10-17T20:50:42.539Z,16.90
2018-10-17T20:53:10.840Z,16.90
2018-10-17T20:55:39.114Z,17.00
2018-10-17T20:58:07.480Z,17.00
2018-10-17T21:00:35.775Z,16.90
2018-10-17T21:03:04.226Z,16.60
2018-10-17T21:05:32.615Z,16.90
2018-10-17T21:08:01.020Z,16.50
2018-10-17T21:10:29.364Z,16.80
2018-10-17T21:12:57.654Z,16.50
2018-10-17T21:15:25.964Z,16.70
2018-10-17T21:17:54.272Z,16.70
2018-10-17T21:20:22.572Z,16.70
2018-10-17T21:22:52.092Z,16.80
2018-10-17T21:25:20.410Z,16.40
2018-10-17T21:27:48.700Z,16.00
2018-10-17T21:30:17.346Z,16.00
2018-10-17T21:32:45.710Z,16.20
2018-10-17T21:35:14.128Z,16.10
2018-10-17T21:37:42.640Z,15.80
2018-10-17T21:40:11.022Z,15.80
2018-10-17T21:42:39.861Z,15.90
2018-10-17T21:45:08.684Z,16.10
2018-10-17T21:47:37.167Z,16.50
2018-10-17T21:50:05.898Z,16.50
2018-10-17T21:52:34.515Z,16.10
2018-10-17T21:55:03.049Z,16.00
2018-10-17T21:57:31.421Z,15.90
2018-10-17T21:59:59.817Z,16.00
2018-10-17T22:02:28.162Z,16.00
2018-10-17T22:04:59.303Z,16.20
2018-10-17T22:07:27.657Z,16.10
2018-10-17T22:09:56.055Z,16.30
2018-10-17T22:12:24.182Z,16.30
2018-10-17T22:14:52.451Z,16.20
2018-10-17T22:17:26.092Z,16.20
2018-10-17T22:19:54.932Z,16.30
2018-10-17T22:22:23.251Z,16.10
2018-10-17T22:24:51.706Z,15.80
2018-10-17T22:27:20.552Z,16.00
2018-10-17T22:29:49.099Z,15.90
2018-10-17T22:32:17.389Z,15.90
2018-10-17T22:34:46.988Z,15.80
2018-10-17T22:37:15.502Z,15.80
2018-10-17T22:39:44.356Z,15.50
2018-10-17T22:42:12.681Z,15.50
2018-10-17T22:44:40.903Z,15.60
2018-10-17T22:47:09.375Z,15.50
2018-10-17T22:49:37.612Z,15.60
2018-10-17T22:52:06.000Z,15.20
2018-10-17T22:54:34.235Z,15.40
2018-10-17T22:57:02.525Z,15.20
2018-10-17T22:59:30.754Z,15.10
2018-10-17T23:01:59.055Z,15.10
2018-10-17T23:04:27.239Z,14.80
2018-10-17T23:06:55.510Z,14.90
2018-10-17T23:09:23.815Z,14.90
2018-10-17T23:11:52.066Z,14.80
2018-10-17T23:14:20.321Z,14.80
2018-10-17T23:16:48.572Z,14.90
2018-10-17T23:19:16.841Z,14.90
2018-10-17T23:21:45.090Z,14.90
2018-10-17T23:24:13.336Z,14.80
2018-10-17T23:26:41.607Z,14.70
2018-10-17T23:29:09.895Z,14.70
2018-10-17T23:31:38.149Z,14.70
2018-10-17T23:34:06.371Z,14.70
2018-10-17T23:36:34.630Z,14.70
2018-10-17T23:39:02.951Z,14.70
2018-10-17T23:41:31.220Z,14.70
2018-10-17T23:43:59.534Z,14.50
2018-10-17T23:46:27.756Z,14.40
2018-10-17T23:48:55.991Z,14.40
2018-10-17T23:51:24.258Z,14.50
2018-10-17T23:53:52.490Z,14.40
2018-10-17T23:56:20.743Z,14.40
2018-10-17T23:58:48.959Z,14.50
